sensor_id;sensor_type;location;lat;lon;timestamp;P1;P4;P2;P0;N10;N4;N25;N1;N05;TS
62742;SPS30;48791;51.636;6.010;2022-12-24T05:40:41;15.14;14.52;11.42;7.18;57.94;57.82;57.07;53.34;41.74;0.80
62742;SPS30;48791;51.636;6.010;2022-12-24T05:43:09;13.58;13.07;10.50;6.93;55.81;55.71;55.09;51.96;41.23;0.77
62742;SPS30;48791;51.636;6.010;2022-12-24T05:45:37;12.17;11.68;9.26;5.93;47.79;47.70;47.12;44.19;34.76;0.78
62742;SPS30;48791;51.636;6.010;2022-12-24T05:48:05;12.07;11.57;9.10;5.71;46.05;45.95;45.36;42.37;33.14;0.79
62742;SPS30;48791;51.636;6.010;2022-12-24T05:50:34;10.69;10.29;8.29;5.50;44.29;44.21;43.73;41.29;32.82;0.75
62742;SPS30;48791;51.636;6.010;2022-12-24T05:53:05;10.83;10.39;8.23;5.26;42.39;42.31;41.79;39.17;30.80;0.79
62742;SPS30;48791;51.636;6.010;2022-12-24T05:55:33;11.87;11.34;8.71;5.16;41.74;41.64;41.01;37.87;29.08;0.82
62742;SPS30;48791;51.636;6.010;2022-12-24T05:58:04;11.59;11.09;8.59;5.20;41.96;41.86;41.26;38.26;29.58;0.81
62742;SPS30;48791;51.636;6.010;2022-12-24T06:00:32;11.35;10.87;8.47;5.20;42.01;41.92;41.34;38.46;29.88;0.80
62742;SPS30;48791;51.636;6.010;2022-12-24T06:03:00;11.87;11.35;8.78;5.29;42.75;42.65;42.03;38.95;30.08;0.82
62742;SPS30;48791;51.636;6.010;2022-12-24T06:05:29;11.12;10.65;8.28;5.07;40.92;40.83;40.26;37.42;29.04;0.81
62742;SPS30;48791;51.636;6.010;2022-12-24T06:07:57;10.02;9.62;7.63;4.88;39.37;39.29;38.81;36.40;28.63;0.77
62742;SPS30;48791;51.636;6.010;2022-12-24T06:10:26;10.88;10.45;8.30;5.33;42.94;42.85;42.33;39.72;31.28;0.76
62742;SPS30;48791;51.636;6.010;2022-12-24T06:12:54;10.90;10.45;8.18;5.08;41.01;40.92;40.37;37.64;29.35;0.76
62742;SPS30;48791;51.636;6.010;2022-12-24T06:15:25;11.34;10.86;8.46;5.19;41.91;41.82;41.25;38.36;29.80;0.79
62742;SPS30;48791;51.636;6.010;2022-12-24T06:17:53;10.88;10.43;8.18;5.10;41.16;41.07;40.53;37.82;29.52;0.77
62742;SPS30;48791;51.636;6.010;2022-12-24T06:20:22;10.41;9.99;7.87;4.98;40.13;40.05;39.54;36.99;28.99;0.76
62742;SPS30;48791;51.636;6.010;2022-12-24T06:22:50;10.63;10.19;7.96;4.93;39.79;39.70;39.17;36.49;28.42;0.79
62742;SPS30;48791;51.636;6.010;2022-12-24T06:25:18;10.45;10.02;7.89;4.98;40.16;40.07;39.56;37.00;28.98;0.79
62742;SPS30;48791;51.636;6.010;2022-12-24T06:27:46;11.12;10.65;8.29;5.08;41.04;40.95;40.38;37.55;29.16;0.80
62742;SPS30;48791;51.636;6.010;2022-12-24T06:30:15;11.66;11.13;8.49;4.94;39.92;39.82;39.18;36.04;27.50;0.82
62742;SPS30;48791;51.636;6.010;2022-12-24T06:32:46;11.43;10.92;8.34;4.88;39.45;39.35;38.73;35.66;27.26;0.81
62742;SPS30;48791;51.636;6.010;2022-12-24T06:35:14;11.06;10.58;8.20;4.97;40.14;40.05;39.48;36.62;28.34;0.80
62742;SPS30;48791;51.636;6.010;2022-12-24T06:37:42;10.05;9.65;7.67;4.95;39.87;39.79;39.31;36.92;29.10;0.77
62742;SPS30;48791;51.636;6.010;2022-12-24T06:40:11;9.62;9.25;7.41;4.86;39.14;39.07;38.62;36.39;28.82;0.76
62742;SPS30;48791;51.636;6.010;2022-12-24T06:42:39;10.53;10.11;8.00;5.10;41.09;41.00;40.49;37.94;29.81;0.76
62742;SPS30;48791;51.636;6.010;2022-12-24T06:45:07;10.00;9.60;7.58;4.80;38.73;38.65;38.17;35.73;28.03;0.77
62742;SPS30;48791;51.636;6.010;2022-12-24T06:47:36;10.88;10.43;8.13;5.02;40.48;40.39;39.84;37.09;28.85;0.79
62742;SPS30;48791;51.636;6.010;2022-12-24T06:50:07;10.34;9.89;7.64;4.59;37.09;37.00;36.46;33.77;26.06;0.79
62742;SPS30;48791;51.636;6.010;2022-12-24T06:52:36;11.54;11.04;8.53;5.14;41.48;41.39;40.79;37.78;29.17;0.81
62742;SPS30;48791;51.636;6.010;2022-12-24T06:55:04;10.43;9.99;7.79;4.80;38.76;38.68;38.15;35.51;27.62;0.79
62742;SPS30;48791;51.636;6.010;2022-12-24T06:57:33;10.12;9.70;7.59;4.72;38.06;37.98;37.48;34.94;27.24;0.78
62742;SPS30;48791;51.636;6.010;2022-12-24T07:00:01;9.50;9.12;7.25;4.67;37.66;37.59;37.14;34.87;27.49;0.77
62742;SPS30;48791;51.636;6.010;2022-12-24T07:02:30;9.25;8.90;7.16;4.73;38.10;38.03;37.61;35.48;28.17;0.74
62742;SPS30;48791;51.636;6.010;2022-12-24T07:04:58;9.93;9.55;7.61;4.94;39.80;39.72;39.25;36.91;29.14;0.75
62742;SPS30;48791;51.636;6.010;2022-12-24T07:07:29;10.46;10.02;7.84;4.87;39.31;39.23;38.70;36.08;28.13;0.79
62742;SPS30;48791;51.636;6.010;2022-12-24T07:09:57;10.73;10.26;7.92;4.77;38.50;38.42;37.86;35.06;27.06;0.80
62742;SPS30;48791;51.636;6.010;2022-12-24T07:12:25;10.02;9.60;7.53;4.70;37.91;37.83;37.33;34.83;27.19;0.77
62742;SPS30;48791;51.636;6.010;2022-12-24T07:14:54;10.55;10.10;7.83;4.76;38.44;38.35;37.81;35.09;27.17;0.80
62742;SPS30;48791;51.636;6.010;2022-12-24T07:17:22;11.08;10.60;8.17;4.88;39.45;39.36;38.78;35.87;27.63;0.81
62742;SPS30;48791;51.636;6.010;2022-12-24T07:19:50;10.21;9.79;7.69;4.83;38.93;38.85;38.34;35.82;28.01;0.78
62742;SPS30;48791;51.636;6.010;2022-12-24T07:22:18;9.99;9.58;7.53;4.73;38.18;38.10;37.61;35.15;27.50;0.80
62742;SPS30;48791;51.636;6.010;2022-12-24T07:24:49;10.25;9.84;7.81;5.02;40.45;40.38;39.89;37.43;29.47;0.78
62742;SPS30;48791;51.636;6.010;2022-12-24T07:27:18;9.69;9.32;7.45;4.87;39.21;39.14;38.69;36.42;28.82;0.76
62742;SPS30;48791;51.636;6.010;2022-12-24T07:29:46;9.82;9.44;7.56;4.95;39.87;39.80;39.34;37.05;29.34;0.76
62742;SPS30;48791;51.636;6.010;2022-12-24T07:32:15;10.74;10.31;8.18;5.24;42.22;42.13;41.62;39.04;30.71;0.78
62742;SPS30;48791;51.636;6.010;2022-12-24T07:34:44;9.96;9.59;7.72;5.11;41.17;41.09;40.64;38.36;30.48;0.76
62742;SPS30;48791;51.636;6.010;2022-12-24T07:37:13;9.75;9.39;7.62;5.14;41.38;41.31;40.88;38.72;30.90;0.74
62742;SPS30;48791;51.636;6.010;2022-12-24T07:39:41;8.75;8.45;6.93;4.78;38.43;38.37;38.00;36.13;29.01;0.74
62742;SPS30;48791;51.636;6.010;2022-12-24T07:42:12;9.33;8.99;7.28;4.89;39.41;39.34;38.93;36.84;29.38;0.75
62742;SPS30;48791;51.636;6.010;2022-12-24T07:44:40;9.69;9.33;7.52;4.99;40.22;40.15;39.71;37.51;29.82;0.75
62742;SPS30;48791;51.636;6.010;2022-12-24T07:47:08;9.21;8.89;7.26;4.96;39.90;39.84;39.44;37.44;29.99;0.74
62742;SPS30;48791;51.636;6.010;2022-12-24T07:49:36;9.76;9.40;7.58;5.05;40.64;40.56;40.13;37.91;30.15;0.74
62742;SPS30;48791;51.636;6.010;2022-12-24T07:52:05;9.64;9.28;7.50;5.02;40.43;40.36;39.93;37.76;30.08;0.75
62742;SPS30;48791;51.636;6.010;2022-12-24T07:54:33;11.15;10.72;8.53;5.51;44.40;44.32;43.79;41.14;32.45;0.76
62742;SPS30;48791;51.636;6.010;2022-12-24T07:57:01;10.48;10.08;8.07;5.28;42.54;42.47;41.98;39.54;31.30;0.75
62742;SPS30;48791;51.636;6.010;2022-12-24T07:59:32;10.00;9.63;7.81;5.25;42.29;42.21;41.77;39.54;31.54;0.74
62742;SPS30;48791;51.636;6.010;2022-12-24T08:02:01;10.60;10.21;8.27;5.56;44.73;44.65;44.18;41.81;33.34;0.73
62742;SPS30;48791;51.636;6.010;2022-12-24T08:04:29;10.41;10.05;8.23;5.66;45.50;45.43;44.99;42.75;34.30;0.73
62742;SPS30;48791;51.636;6.010;2022-12-24T08:07:00;11.20;10.79;8.75;5.89;47.39;47.31;46.81;44.31;35.35;0.76
62742;SPS30;48791;51.636;6.010;2022-12-24T08:09:30;10.40;10.06;8.37;5.94;47.71;47.65;47.23;45.13;36.49;0.73
62742;SPS30;48791;51.636;6.010;2022-12-24T08:11:58;9.81;9.51;8.04;5.89;47.29;47.23;46.87;45.02;36.69;0.71
62742;SPS30;48791;51.636;6.010;2022-12-24T08:14:26;8.95;8.70;7.43;5.54;44.52;44.46;44.15;42.54;34.82;0.70
62742;SPS30;48791;51.636;6.010;2022-12-24T08:16:57;9.94;9.61;7.95;5.59;44.94;44.88;44.47;42.42;34.23;0.72
62742;SPS30;48791;51.636;6.010;2022-12-24T08:19:26;9.85;9.52;7.85;5.47;43.97;43.91;43.50;41.43;33.36;0.72
62742;SPS30;48791;51.636;6.010;2022-12-24T08:21:54;10.13;9.78;8.02;5.54;44.54;44.47;44.04;41.88;33.63;0.73
62742;SPS30;48791;51.636;6.010;2022-12-24T08:24:22;10.91;10.52;8.55;5.79;46.61;46.54;46.06;43.65;34.88;0.73
62742;SPS30;48791;51.636;6.010;2022-12-24T08:26:51;10.19;9.83;8.00;5.43;43.69;43.62;43.17;40.93;32.73;0.72
62742;SPS30;48791;51.636;6.010;2022-12-24T08:29:19;10.47;10.08;8.14;5.43;43.76;43.68;43.21;40.84;32.52;0.72
62742;SPS30;48791;51.636;6.010;2022-12-24T08:31:47;10.76;10.37;8.39;5.62;45.26;45.18;44.71;42.29;33.70;0.74
62742;SPS30;48791;51.636;6.010;2022-12-24T08:34:18;10.31;9.95;8.20;5.70;45.84;45.77;45.34;43.17;34.74;0.71
62742;SPS30;48791;51.636;6.010;2022-12-24T08:36:47;10.00;9.70;8.20;6.00;48.18;48.11;47.75;45.85;37.36;0.67
62742;SPS30;48791;51.636;6.010;2022-12-24T08:39:15;10.85;10.49;8.66;6.06;48.72;48.64;48.20;45.94;37.02;0.72
62742;SPS30;48791;51.636;6.010;2022-12-24T08:41:43;10.48;10.12;8.32;5.77;46.43;46.36;45.92;43.71;35.14;0.73
62742;SPS30;48791;51.636;6.010;2022-12-24T08:44:11;11.35;10.92;8.74;5.71;46.03;45.95;45.42;42.77;33.86;0.76
62742;SPS30;48791;51.636;6.010;2022-12-24T08:46:40;10.74;10.34;8.35;5.56;44.76;44.68;44.20;41.76;33.23;0.74
62742;SPS30;48791;51.636;6.010;2022-12-24T08:49:08;11.29;10.95;9.25;6.77;54.37;54.30;53.88;51.75;42.16;0.66
62742;SPS30;48791;51.636;6.010;2022-12-24T08:51:39;9.93;9.64;8.14;5.95;47.81;47.75;47.38;45.50;37.07;0.70
62742;SPS30;48791;51.636;6.010;2022-12-24T08:54:07;10.22;9.87;8.17;5.73;46.11;46.04;45.62;43.51;35.10;0.71
62742;SPS30;48791;51.636;6.010;2022-12-24T08:56:35;10.96;10.56;8.54;5.72;46.03;45.95;45.47;43.00;34.26;0.74
62742;SPS30;48791;51.636;6.010;2022-12-24T08:59:04;11.53;11.11;9.00;6.04;48.63;48.54;48.03;45.45;36.23;0.74
62742;SPS30;48791;51.636;6.010;2022-12-24T09:01:32;13.11;12.60;10.06;6.55;52.76;52.66;52.05;48.96;38.70;0.77
62742;SPS30;48791;51.636;6.010;2022-12-24T09:04:00;12.72;12.21;9.66;6.16;49.67;49.58;48.96;45.88;36.05;0.77
62742;SPS30;48791;51.636;6.010;2022-12-24T09:06:30;11.82;11.36;9.05;5.86;47.20;47.11;46.55;43.75;34.53;0.75
62742;SPS30;48791;51.636;6.010;2022-12-24T09:09:01;11.88;11.42;9.12;5.93;47.80;47.71;47.16;44.36;35.06;0.73
62742;SPS30;48791;51.636;6.010;2022-12-24T09:11:30;13.00;12.50;10.01;6.56;52.84;52.75;52.14;49.12;38.90;0.75
62742;SPS30;48791;51.636;6.010;2022-12-24T09:13:58;12.30;11.84;9.58;6.41;51.60;51.51;50.96;48.19;38.39;0.74
62742;SPS30;48791;51.636;6.010;2022-12-24T09:16:27;11.53;11.13;9.14;6.32;50.83;50.75;50.26;47.81;38.41;0.72
62742;SPS30;48791;51.636;6.010;2022-12-24T09:18:56;12.56;12.18;10.26;7.46;59.95;59.87;59.40;57.00;46.38;0.70
62742;SPS30;48791;51.636;6.010;2022-12-24T09:21:24;13.53;13.12;11.09;8.11;65.16;65.07;64.57;62.01;50.52;0.70
62742;SPS30;48791;51.636;6.010;2022-12-24T09:23:53;14.02;13.57;11.34;8.12;65.24;65.15;64.60;61.82;50.10;0.71
62742;SPS30;48791;51.636;6.010;2022-12-24T09:26:24;12.21;11.87;10.18;7.65;61.40;61.33;60.91;58.76;48.17;0.68
62742;SPS30;48791;51.636;6.010;2022-12-24T09:28:55;10.96;10.65;9.10;6.80;54.61;54.55;54.17;52.20;42.74;0.69
62742;SPS30;48791;51.636;6.010;2022-12-24T09:31:25;10.98;10.65;8.98;6.55;52.63;52.56;52.16;50.07;40.76;0.70
62742;SPS30;48791;51.636;6.010;2022-12-24T09:33:53;13.44;13.03;10.99;8.02;64.41;64.33;63.83;61.27;49.88;0.71
62742;SPS30;48791;51.636;6.010;2022-12-24T09:36:21;14.21;13.79;11.69;8.60;69.11;69.02;68.50;65.85;53.73;0.72
62742;SPS30;48791;51.636;6.010;2022-12-24T09:38:49;13.64;13.28;11.49;8.77;70.35;70.27;69.83;67.52;55.54;0.70
62742;SPS30;48791;51.636;6.010;2022-12-24T09:41:26;11.65;11.34;9.79;7.44;59.74;59.67;59.29;57.30;47.10;0.71
62742;SPS30;48791;51.636;6.010;2022-12-24T09:44:02;11.78;11.44;9.72;7.17;57.62;57.54;57.12;54.94;44.86;0.71
62742;SPS30;48791;51.636;6.010;2022-12-24T09:46:34;12.85;12.42;10.28;7.21;58.00;57.91;57.39;54.73;44.15;0.73
62742;SPS30;48791;51.636;6.010;2022-12-24T09:49:09;11.67;11.29;9.38;6.63;53.34;53.26;52.79;50.42;40.75;0.74
62742;SPS30;48791;51.636;6.010;2022-12-24T09:51:44;12.47;12.10;10.24;7.50;60.26;60.18;59.72;57.37;46.77;0.72
62742;SPS30;48791;51.636;6.010;2022-12-24T09:54:16;11.33;11.00;9.35;6.91;55.47;55.40;55.00;52.91;43.21;0.72
62742;SPS30;48791;51.636;6.010;2022-12-24T09:56:50;10.11;9.80;8.28;6.05;48.57;48.51;48.13;46.21;37.64;0.70
62742;SPS30;48791;51.636;6.010;2022-12-24T09:59:19;10.81;10.48;8.81;6.38;51.28;51.21;50.80;48.71;39.60;0.69
62742;SPS30;48791;51.636;6.010;2022-12-24T10:01:50;10.39;10.07;8.48;6.17;49.53;49.47;49.08;47.08;38.31;0.70
62742;SPS30;48791;51.636;6.010;2022-12-24T10:04:20;10.33;10.03;8.51;6.27;50.35;50.29;49.91;47.99;39.17;0.70
62742;SPS30;48791;51.636;6.010;2022-12-24T10:06:51;11.74;11.38;9.58;6.96;55.92;55.85;55.41;53.15;43.23;0.73
62742;SPS30;48791;51.636;6.010;2022-12-24T10:09:27;11.65;11.28;9.39;6.67;53.65;53.57;53.11;50.76;41.07;0.73
62742;SPS30;48791;51.636;6.010;2022-12-24T10:12:04;11.69;11.33;9.55;6.94;55.77;55.69;55.26;53.02;43.13;0.71
62742;SPS30;48791;51.636;6.010;2022-12-24T10:14:41;12.21;11.83;9.94;7.18;57.70;57.62;57.16;54.78;44.50;0.71
62742;SPS30;48791;51.636;6.010;2022-12-24T10:17:20;11.44;11.07;9.20;6.51;52.34;52.27;51.81;49.49;40.00;0.70
62742;SPS30;48791;51.636;6.010;2022-12-24T10:19:55;12.36;11.96;9.95;7.07;56.82;56.74;56.25;53.75;43.48;0.70
62742;SPS30;48791;51.636;6.010;2022-12-24T10:22:29;11.67;11.38;9.88;7.60;60.98;60.91;60.54;58.61;48.30;0.66
62742;SPS30;48791;51.636;6.010;2022-12-24T10:25:03;11.61;11.31;9.82;7.53;60.43;60.36;59.99;58.05;47.82;0.68
62742;SPS30;48791;51.636;6.010;2022-12-24T10:27:42;12.07;11.74;10.04;7.51;60.29;60.22;59.80;57.64;47.21;0.69
62742;SPS30;48791;51.636;6.010;2022-12-24T10:30:13;11.79;11.47;9.84;7.41;59.46;59.39;58.99;56.92;46.68;0.68
62742;SPS30;48791;51.636;6.010;2022-12-24T10:32:43;11.52;11.22;9.72;7.43;59.63;59.56;59.19;57.25;47.12;0.68
62742;SPS30;48791;51.636;6.010;2022-12-24T10:35:16;11.11;10.86;9.61;7.63;61.18;61.13;60.81;59.16;49.08;0.67
62742;SPS30;48791;51.636;6.010;2022-12-24T10:37:47;11.18;10.97;9.92;8.15;65.31;65.26;64.99;63.54;53.08;0.63
62742;SPS30;48791;51.636;6.010;2022-12-24T10:40:21;10.00;9.83;9.02;7.58;60.71;60.67;60.46;59.30;49.76;0.61
62742;SPS30;48791;51.636;6.010;2022-12-24T10:42:55;11.20;11.01;10.09;8.46;67.74;67.69;67.45;66.14;55.47;0.63
62742;SPS30;48791;51.636;6.010;2022-12-24T10:45:24;10.50;10.33;9.48;7.97;63.79;63.75;63.53;62.31;52.28;0.64
62742;SPS30;48791;51.636;6.010;2022-12-24T10:47:56;10.56;10.35;9.32;7.60;60.88;60.83;60.56;59.15;49.34;0.65
62742;SPS30;48791;51.636;6.010;2022-12-24T10:50:30;11.02;10.75;9.41;7.33;58.82;58.76;58.43;56.68;46.84;0.68
62742;SPS30;48791;51.636;6.010;2022-12-24T10:53:10;11.72;11.45;10.12;8.01;64.25;64.19;63.85;62.09;51.49;0.66
62742;SPS30;48791;51.636;6.010;2022-12-24T10:55:42;9.90;9.74;8.95;7.55;60.41;60.37;60.16;59.03;49.55;0.61
62742;SPS30;48791;51.636;6.010;2022-12-24T10:58:14;9.64;9.51;8.83;7.57;60.55;60.51;60.33;59.33;49.95;0.61
62742;SPS30;48791;51.636;6.010;2022-12-24T11:00:48;11.54;11.31;10.15;8.26;66.15;66.09;65.80;64.23;53.55;0.66
62742;SPS30;48791;51.636;6.010;2022-12-24T11:03:22;12.56;12.24;10.64;8.20;65.74;65.67;65.27;63.20;52.10;0.67
62742;SPS30;48791;51.636;6.010;2022-12-24T11:06:02;10.58;10.38;9.36;7.66;61.37;61.32;61.06;59.67;49.81;0.64
62742;SPS30;48791;51.636;6.010;2022-12-24T11:08:32;11.62;11.36;10.03;7.92;63.53;63.47;63.13;61.37;50.87;0.67
62742;SPS30;48791;51.636;6.010;2022-12-24T11:11:01;12.46;12.12;10.41;7.84;62.91;62.84;62.41;60.22;49.40;0.71
62742;SPS30;48791;51.636;6.010;2022-12-24T11:13:34;11.79;11.48;9.95;7.61;61.08;61.01;60.63;58.65;48.28;0.70
62742;SPS30;48791;51.636;6.010;2022-12-24T11:16:06;11.23;11.00;9.86;7.99;64.03;63.98;63.69;62.15;51.78;0.66
62742;SPS30;48791;51.636;6.010;2022-12-24T11:18:37;10.91;10.69;9.59;7.77;62.29;62.24;61.96;60.46;50.38;0.64
62742;SPS30;48791;51.636;6.010;2022-12-24T11:21:11;10.37;10.23;9.53;8.19;65.50;65.47;65.28;64.22;54.11;0.62
62742;SPS30;48791;51.636;6.010;2022-12-24T11:23:47;10.56;10.41;9.65;8.23;65.89;65.85;65.65;64.53;54.30;0.62
62742;SPS30;48791;51.636;6.010;2022-12-24T11:26:19;10.91;10.71;9.70;7.98;63.95;63.90;63.64;62.24;52.01;0.64
62742;SPS30;48791;51.636;6.010;2022-12-24T11:29:02;10.93;10.71;9.64;7.86;63.00;62.95;62.67;61.21;51.06;0.65
62742;SPS30;48791;51.636;6.010;2022-12-24T11:31:31;10.95;10.71;9.54;7.66;61.36;61.31;61.01;59.44;49.42;0.66
62742;SPS30;48791;51.636;6.010;2022-12-24T11:34:04;12.42;12.15;10.82;8.67;69.51;69.45;69.11;67.32;55.96;0.68
62742;SPS30;48791;51.636;6.010;2022-12-24T11:36:46;13.20;12.96;11.78;9.76;78.16;78.10;77.80;76.15;63.72;0.65
62742;SPS30;48791;51.636;6.010;2022-12-24T11:39:17;12.27;12.05;10.96;9.08;72.68;72.63;72.35;70.81;59.25;0.64
62742;SPS30;48791;51.636;6.010;2022-12-24T11:41:47;11.59;11.39;10.41;8.70;69.63;69.58;69.32;67.93;56.94;0.64
62742;SPS30;48791;51.636;6.010;2022-12-24T11:44:21;11.68;11.46;10.38;8.55;68.45;68.40;68.12;66.62;55.68;0.65
62742;SPS30;48791;51.636;6.010;2022-12-24T11:46:51;11.28;11.07;10.02;8.24;66.01;65.96;65.69;64.24;53.68;0.64
62742;SPS30;48791;51.636;6.010;2022-12-24T11:49:22;10.90;10.74;9.92;8.43;67.47;67.42;67.21;66.02;55.51;0.64
62742;SPS30;48791;51.636;6.010;2022-12-24T11:52:00;11.33;11.12;10.06;8.27;66.22;66.17;65.89;64.43;53.83;0.65
62742;SPS30;48791;51.636;6.010;2022-12-24T11:54:33;10.21;10.07;9.40;8.10;64.81;64.77;64.59;63.57;53.59;0.61
62742;SPS30;48791;51.636;6.010;2022-12-24T11:57:06;9.43;9.30;8.65;7.42;59.36;59.32;59.15;58.17;48.99;0.63
62742;SPS30;48791;51.636;6.010;2022-12-24T11:59:43;9.90;9.75;9.05;7.73;61.87;61.83;61.64;60.60;51.00;0.62
62742;SPS30;48791;51.636;6.010;2022-12-24T12:02:15;9.98;9.80;8.90;7.36;58.97;58.93;58.70;57.44;48.06;0.64
62742;SPS30;48791;51.636;6.010;2022-12-24T12:04:48;9.47;9.30;8.45;6.99;55.99;55.95;55.73;54.54;45.63;0.63
62742;SPS30;48791;51.636;6.010;2022-12-24T12:07:21;10.14;9.97;9.10;7.59;60.80;60.76;60.54;59.31;49.70;0.62
62742;SPS30;48791;51.636;6.010;2022-12-24T12:09:53;10.27;10.10;9.23;7.72;61.84;61.79;61.57;60.35;50.59;0.61
62742;SPS30;48791;51.636;6.010;2022-12-24T12:12:26;10.75;10.55;9.53;7.82;62.63;62.58;62.32;60.91;50.87;0.63
62742;SPS30;48791;51.636;6.010;2022-12-24T12:14:59;10.54;10.33;9.26;7.51;60.19;60.14;59.87;58.43;48.69;0.63
62742;SPS30;48791;51.636;6.010;2022-12-24T12:17:31;10.38;10.21;9.38;7.90;63.24;63.20;62.98;61.79;51.87;0.61
62742;SPS30;48791;51.636;6.010;2022-12-24T12:20:03;9.46;9.36;8.83;7.73;61.84;61.81;61.66;60.82;51.42;0.58
62742;SPS30;48791;51.636;6.010;2022-12-24T12:22:39;9.68;9.54;8.86;7.58;60.66;60.62;60.44;59.42;50.03;0.62
62742;SPS30;48791;51.636;6.010;2022-12-24T12:25:16;10.82;10.63;9.69;8.07;64.58;64.53;64.29;62.97;52.74;0.65
62742;SPS30;48791;51.636;6.010;2022-12-24T12:27:49;10.88;10.71;9.86;8.34;66.73;66.69;66.46;65.24;54.80;0.63
62742;SPS30;48791;51.636;6.010;2022-12-24T12:30:22;11.44;11.25;10.31;8.65;69.23;69.18;68.94;67.59;56.70;0.66
62742;SPS30;48791;51.636;6.010;2022-12-24T12:32:56;11.23;11.07;10.27;8.78;70.26;70.22;70.00;68.82;57.92;0.64
62742;SPS30;48791;51.636;6.010;2022-12-24T12:35:28;10.05;9.92;9.28;8.03;64.28;64.24;64.07;63.10;53.23;0.61
62742;SPS30;48791;51.636;6.010;2022-12-24T12:38:00;10.46;10.33;9.67;8.37;66.96;66.92;66.75;65.73;55.46;0.61
62742;SPS30;48791;51.636;6.010;2022-12-24T12:43:15;10.58;10.45;9.81;8.53;68.27;68.24;68.06;67.07;56.63;0.60
62742;SPS30;48791;51.636;6.010;2022-12-24T12:45:54;10.48;10.37;9.81;8.63;68.99;68.96;68.80;67.89;57.44;0.59
62742;SPS30;48791;51.636;6.010;2022-12-24T12:48:30;10.41;10.29;9.67;8.42;67.32;67.29;67.12;66.15;55.86;0.62
62742;SPS30;48791;51.636;6.010;2022-12-24T12:51:07;10.96;10.81;10.06;8.64;69.10;69.06;68.86;67.73;57.06;0.63
62742;SPS30;48791;51.636;6.010;2022-12-24T12:56:25;11.26;11.13;10.47;9.13;73.01;72.97;72.79;71.74;60.61;0.62
62742;SPS30;48791;51.636;6.010;2022-12-24T12:58:58;10.68;10.56;9.98;8.75;69.99;69.95;69.79;68.85;58.22;0.61
62742;SPS30;48791;51.636;6.010;2022-12-24T13:01:35;9.34;9.25;8.79;7.77;62.16;62.13;62.00;61.23;51.85;0.60
62742;SPS30;48791;51.636;6.010;2022-12-24T13:04:16;9.81;9.67;9.00;7.71;61.72;61.68;61.50;60.49;50.94;0.62
62742;SPS30;48791;51.636;6.010;2022-12-24T13:09:40;9.36;9.25;8.70;7.58;60.64;60.60;60.45;59.59;50.34;0.61
62742;SPS30;48791;51.636;6.010;2022-12-24T13:12:23;9.88;9.76;9.21;8.05;64.39;64.36;64.21;63.31;53.52;0.59
62742;SPS30;48791;51.636;6.010;2022-12-24T13:15:00;9.72;9.59;8.98;7.77;62.17;62.13;61.97;61.02;51.48;0.62
62742;SPS30;48791;51.636;6.010;2022-12-24T13:17:59;9.92;9.77;9.03;7.68;61.48;61.45;61.25;60.17;50.60;0.63
62742;SPS30;48791;51.636;6.010;2022-12-24T13:20:35;9.59;9.45;8.78;7.51;60.10;60.07;59.89;58.88;49.57;0.63
62742;SPS30;48791;51.636;6.010;2022-12-24T13:23:10;9.74;9.61;8.99;7.77;62.14;62.11;61.94;60.98;51.44;0.63
62742;SPS30;48791;51.636;6.010;2022-12-24T13:25:41;9.50;9.41;8.96;7.94;63.52;63.49;63.36;62.60;53.04;0.59
62742;SPS30;48791;51.636;6.010;2022-12-24T13:28:14;9.41;9.33;8.90;7.92;63.29;63.26;63.14;62.40;52.90;0.61
62742;SPS30;48791;51.636;6.010;2022-12-24T13:30:43;9.51;9.42;8.99;8.01;64.02;63.99;63.87;63.13;53.53;0.59
62742;SPS30;48791;51.636;6.010;2022-12-24T13:33:14;9.83;9.74;9.25;8.18;65.44;65.41;65.28;64.47;54.60;0.59
62742;SPS30;48791;51.636;6.010;2022-12-24T13:36:05;9.76;9.71;9.42;8.57;68.49;68.47;68.38;67.78;57.69;0.56
62742;SPS30;48791;51.636;6.010;2022-12-24T13:38:41;10.59;10.45;9.77;8.44;67.54;67.50;67.32;66.27;55.90;0.62
62742;SPS30;48791;51.636;6.010;2022-12-24T13:44:02;10.39;10.33;10.04;9.15;73.11;73.09;72.99;72.37;61.61;0.56
62742;SPS30;48791;51.636;6.010;2022-12-24T13:46:47;10.33;10.28;10.04;9.22;73.69;73.67;73.59;73.03;62.25;0.56
62742;SPS30;48791;51.636;6.010;2022-12-24T13:49:17;10.50;10.43;10.11;9.18;73.36;73.33;73.23;72.57;61.75;0.59
62742;SPS30;48791;51.636;6.010;2022-12-24T13:51:50;10.58;10.50;10.13;9.14;73.04;73.01;72.90;72.18;61.35;0.59
62742;SPS30;48791;51.636;6.010;2022-12-24T13:54:20;10.97;10.92;10.62;9.70;77.54;77.51;77.41;76.77;65.38;0.58
62742;SPS30;48791;51.636;6.010;2022-12-24T13:56:52;10.53;10.46;10.15;9.24;73.81;73.78;73.68;73.04;62.16;0.55
62742;SPS30;48791;51.636;6.010;2022-12-24T13:59:23;10.84;10.80;10.60;9.78;78.16;78.13;78.06;77.51;66.13;0.55
62742;SPS30;48791;51.636;6.010;2022-12-24T14:01:56;9.90;9.86;9.65;8.87;70.87;70.85;70.77;70.25;59.89;0.55
62742;SPS30;48791;51.636;6.010;2022-12-24T14:04:25;10.69;10.64;10.37;9.50;75.88;75.86;75.77;75.16;64.04;0.58
62742;SPS30;48791;51.636;6.010;2022-12-24T14:06:59;11.34;11.25;10.78;9.64;77.09;77.06;76.92;76.08;64.57;0.60
62742;SPS30;48791;51.636;6.010;2022-12-24T14:09:29;11.14;11.08;10.76;9.80;78.35;78.33;78.22;77.55;66.02;0.57
62742;SPS30;48791;51.636;6.010;2022-12-24T14:12:13;11.42;11.34;10.92;9.84;78.63;78.59;78.47;77.68;66.00;0.60
62742;SPS30;48791;51.636;6.010;2022-12-24T14:14:42;10.17;10.12;9.84;8.99;71.81;71.78;71.69;71.09;60.54;0.59
62742;SPS30;48791;51.636;6.010;2022-12-24T14:17:13;10.75;10.70;10.43;9.56;76.37;76.35;76.26;75.65;64.46;0.58
62742;SPS30;48791;51.636;6.010;2022-12-24T14:19:49;10.00;9.94;9.65;8.79;70.22;70.19;70.10;69.49;59.15;0.57
62742;SPS30;48791;51.636;6.010;2022-12-24T14:22:24;11.15;11.03;10.46;9.22;73.73;73.69;73.53;72.59;61.44;0.59
62742;SPS30;48791;51.636;6.010;2022-12-24T14:24:55;11.31;11.23;10.82;9.75;77.95;77.92;77.79;77.01;65.44;0.58
62742;SPS30;48791;51.636;6.010;2022-12-24T14:27:28;10.69;10.64;10.40;9.55;76.28;76.26;76.17;75.59;64.44;0.58
62742;SPS30;48791;51.636;6.010;2022-12-24T14:30:00;9.34;9.31;9.15;8.46;67.56;67.54;67.48;67.02;57.20;0.57
62742;SPS30;48791;51.636;6.010;2022-12-24T14:32:34;10.38;10.35;10.18;9.43;75.32;75.30;75.24;74.74;63.81;0.56
62742;SPS30;48791;51.636;6.010;2022-12-24T14:35:07;9.95;9.93;9.85;9.23;73.68;73.66;73.62;73.23;62.63;0.54
62742;SPS30;48791;51.636;6.010;2022-12-24T14:37:38;10.26;10.24;10.14;9.47;75.66;75.65;75.60;75.18;64.27;0.55
62742;SPS30;48791;51.636;6.010;2022-12-24T14:40:12;10.65;10.63;10.52;9.82;78.41;78.39;78.34;77.90;66.58;0.55
62742;SPS30;48791;51.636;6.010;2022-12-24T14:42:45;10.87;10.84;10.68;9.92;79.25;79.23;79.16;78.67;67.18;0.56
62742;SPS30;48791;51.636;6.010;2022-12-24T14:45:18;10.51;10.47;10.28;9.50;75.91;75.89;75.82;75.30;64.25;0.58
62742;SPS30;48791;51.636;6.010;2022-12-24T14:47:55;10.66;10.63;10.48;9.73;77.74;77.72;77.66;77.18;65.91;0.57
62742;SPS30;48791;51.636;6.010;2022-12-24T14:50:36;10.69;10.67;10.58;9.90;79.10;79.08;79.03;78.61;67.22;0.55
62742;SPS30;48791;51.636;6.010;2022-12-24T14:53:16;12.81;12.77;12.57;11.65;93.07;93.05;92.97;92.36;78.86;0.57
62742;SPS30;48791;51.636;6.010;2022-12-24T14:55:48;12.36;12.30;11.99;10.97;87.67;87.64;87.54;86.84;73.98;0.58
62742;SPS30;48791;51.636;6.010;2022-12-24T14:58:24;12.51;12.45;12.17;11.17;89.26;89.23;89.13;88.45;75.40;0.57
62742;SPS30;48791;51.636;6.010;2022-12-24T15:00:54;11.82;11.79;11.62;10.80;86.24;86.22;86.15;85.62;73.12;0.54
62742;SPS30;48791;51.636;6.010;2022-12-24T15:03:24;11.29;11.26;11.11;10.33;82.51;82.49;82.42;81.92;69.97;0.55
62742;SPS30;48791;51.636;6.010;2022-12-24T15:05:54;11.34;11.31;11.17;10.39;83.01;82.99;82.93;82.43;70.42;0.56
62742;SPS30;48791;51.636;6.010;2022-12-24T15:08:31;11.24;11.21;11.03;10.23;81.75;81.72;81.66;81.13;69.27;0.56